Aérodrome :
LOGIN :

S'inscrire | Disclaimer

   EN    FR    IT 

 










Légende :    VFR   VFR Marginal   IFR   IFR Intensif   IFR Très Intensif
Visi : 
Plafond : 
>= 8 km
>= 3000ft
5 à 8 km
1000 à 3000 ft
1500m à 5 km
500 à 1000 ft
800 à 1500m
200 à 500 ft
< 800m
< 200 ft
Symboles :   Orages  Brouillard  Fortes neiges  Fortes précipitations  Vent > 20 kt
SIGMETs :   Divers  Orages  Givrage  Turbulence  Onde Orograph.  Cendres Volcan.







- Altitude de l'aérodrome : 219 ft
- Code IATA : DNR
- Voir les cartes d'approche


LFRD - Dinard

DERNIER METAR :
  • 181430Z AUTO 33010KT 9999 BKN027 BKN040 OVC046 20/12 Q1014 NOSIG

METARs EXPIRÉS :
  • 181400Z AUTO 33010KT 9999 FEW027 BKN037 OVC046 20/14 Q1014 NOSIG
  • 181330Z AUTO 31010KT 9999 BKN035 BKN041 OVC048 19/15 Q1015 NOSIG
  • 181300Z AUTO 31013KT 9999 FEW015 OVC047 20/15 Q1014 NOSIG
  • 181230Z AUTO 32011KT 290V350 9999 FEW014 OVC044 19/15 Q1014 TEMPO 4000 SHRA BKN013
  • 181200Z AUTO 33011KT 9999 BKN038 OVC045 19/15 Q1014 TEMPO 4000 SHRA BKN013

TAF TAF LFRD
Valide du 18 à 12h jusqu'au 19 à 12h UTC


181100Z 1812/1912 32010KT 9999 BKN025
TEMPO 1812/1814 4000 SHRA BKN013
BECMG 1821/1824 VRB03KT
PROB30
TEMPO 1902/1905 3000 BR
BECMG 1907/1909 22010KT
ATIS : +33 2 99 16 81 50
Pas de NOTAMs connus pour ce terrain.



MET'MAP, la Météo Aéronautique d'un coup d'oeil ! - Copyright ORBIFLY Décembre 2007 - Disclaimer

ORBIFLY MET'MAP TEAM :

Programmation & Développement : Alexandra Zaïnal
Conception & Développement : Baudouin d'Aumeries
Co-Programmation & Développement : Marc-Olivier Méhu
Soutien technique & logistique : Manuel Goepfert

Contact : metmap@orbifly.com




SOURCES & CREDITS :

   NOAA